createdAt,value
2023-05-20T00:07:14.309Z,85.11
2023-05-20T00:11:14.409Z,85.09
2023-05-20T05:03:26.990Z,76.22
2023-05-20T05:05:58.958Z,76.12
2023-05-20T05:08:27.046Z,75.71
2023-05-20T05:10:55.247Z,74.13
2023-05-20T05:13:23.604Z,74.97
2023-05-20T05:16:02.351Z,75.26
2023-05-20T05:18:32.636Z,74.20
2023-05-20T05:21:03.409Z,73.85
2023-05-20T05:23:33.613Z,74.05
2023-05-20T05:26:02.106Z,73.60
2023-05-20T05:28:30.301Z,73.53
2023-05-20T05:30:59.844Z,72.97
2023-05-20T05:38:04.045Z,72.47
2023-05-20T05:40:32.298Z,71.82
2023-05-20T05:43:00.841Z,70.35
2023-05-20T05:45:28.941Z,70.56
2023-05-20T05:47:57.219Z,70.38
2023-05-20T05:50:32.834Z,69.96
2023-05-20T05:53:01.225Z,68.95
2023-05-20T05:55:29.635Z,68.15
2023-05-20T05:58:00.731Z,68.17
2023-05-20T06:00:28.925Z,67.44
2023-05-20T06:02:57.511Z,68.09
2023-05-20T06:05:28.931Z,67.42
2023-05-20T06:07:57.785Z,67.51
2023-05-20T06:10:25.971Z,67.64
2023-05-20T06:12:54.714Z,66.92
2023-05-20T06:15:22.766Z,65.42
2023-05-20T06:17:51.095Z,64.43
2023-05-20T06:20:19.668Z,63.28
2023-05-20T06:22:49.039Z,61.24
2023-05-20T06:25:17.641Z,61.94
2023-05-20T06:27:49.916Z,62.28
2023-05-20T06:30:19.229Z,60.69
2023-05-20T06:32:50.818Z,59.48
2023-05-20T06:35:18.819Z,60.33
2023-05-20T06:37:57.856Z,60.25
2023-05-20T06:40:27.575Z,59.19
2023-05-20T06:42:56.344Z,57.47
2023-05-20T06:45:24.474Z,56.16
2023-05-20T06:47:54.445Z,54.46
2023-05-20T06:50:22.413Z,54.80
2023-05-20T06:52:50.069Z,53.18
2023-05-20T06:55:18.908Z,54.71
2023-05-20T06:57:46.591Z,55.30
2023-05-20T07:00:15.262Z,54.11
2023-05-20T07:02:44.019Z,53.43
2023-05-20T07:05:12.059Z,53.03
2023-05-20T07:07:39.841Z,52.86
2023-05-20T07:10:08.326Z,52.16
2023-05-20T07:12:37.048Z,51.64
2023-05-20T07:15:05.169Z,52.60
2023-05-20T07:17:32.840Z,50.60
2023-05-20T07:20:00.911Z,50.54
2023-05-20T07:22:28.546Z,51.34
2023-05-20T07:24:56.267Z,49.62
2023-05-20T07:27:23.930Z,50.90
2023-05-20T07:29:51.791Z,50.74
2023-05-20T07:32:19.448Z,50.47
2023-05-20T07:34:47.181Z,49.14
2023-05-20T07:37:24.849Z,48.69
2023-05-20T07:39:52.662Z,47.84
2023-05-20T07:42:24.883Z,47.94
2023-05-20T07:44:58.520Z,48.20
2023-05-20T07:47:29.098Z,46.72
2023-05-20T07:49:57.569Z,47.07
2023-05-20T07:52:25.371Z,47.53
2023-05-20T07:54:54.162Z,47.57
2023-05-20T07:57:22.071Z,47.24
2023-05-20T07:59:53.895Z,47.33
2023-05-20T08:02:21.875Z,47.76
2023-05-20T08:04:49.582Z,47.20
2023-05-20T08:07:17.415Z,47.58
2023-05-20T08:09:45.178Z,48.93
2023-05-20T08:12:12.852Z,48.36
2023-05-20T08:14:42.049Z,48.67
2023-05-20T08:17:09.779Z,49.53
2023-05-20T08:19:37.566Z,48.74
2023-05-20T08:22:06.367Z,47.77
2023-05-20T08:24:34.148Z,48.53
2023-05-20T08:27:01.915Z,47.66
2023-05-20T08:29:29.757Z,45.94
2023-05-20T08:31:57.375Z,45.14
2023-05-20T08:34:25.553Z,45.11
2023-05-20T08:36:53.499Z,44.57
2023-05-20T08:39:21.488Z,45.28
2023-05-20T08:41:49.319Z,44.19
2023-05-20T08:44:18.084Z,45.32
2023-05-20T08:46:46.583Z,44.88
2023-05-20T08:49:14.432Z,44.61
2023-05-20T08:51:43.275Z,44.52
2023-05-20T08:54:12.083Z,44.83
2023-05-20T08:56:42.085Z,45.59
2023-05-20T08:59:10.468Z,46.69
2023-05-20T09:01:43.565Z,45.60
2023-05-20T09:04:11.523Z,46.24
2023-05-20T09:06:47.006Z,47.26
2023-05-20T09:09:15.016Z,48.65
2023-05-20T09:11:43.773Z,48.06
2023-05-20T09:14:11.469Z,48.13
2023-05-20T09:16:41.529Z,46.76
2023-05-20T09:19:10.711Z,46.23
2023-05-20T09:21:41.184Z,45.79
2023-05-20T09:24:08.995Z,45.84
2023-05-20T09:26:36.976Z,45.19
2023-05-20T09:29:05.131Z,45.27
2023-05-20T09:31:36.465Z,45.99
2023-05-20T09:34:04.708Z,45.54
2023-05-20T09:36:35.085Z,44.90
2023-05-20T09:39:05.343Z,44.92
2023-05-20T09:41:38.398Z,46.03
2023-05-20T09:44:07.340Z,44.54
2023-05-20T09:46:36.499Z,44.72
2023-05-20T09:49:06.768Z,44.01
2023-05-20T09:51:35.432Z,44.47
2023-05-20T09:54:04.907Z,45.67
2023-05-20T09:56:34.923Z,44.57
2023-05-20T09:59:05.283Z,43.51
2023-05-20T10:01:33.001Z,42.16
2023-05-20T10:04:01.893Z,42.65
2023-05-20T10:07:11.936Z,42.85
2023-05-20T10:09:58.537Z,43.47
2023-05-20T10:12:58.128Z,43.99
2023-05-20T10:15:48.911Z,44.64
2023-05-20T10:18:28.830Z,44.71
2023-05-20T10:21:17.212Z,44.31
2023-05-20T10:23:45.774Z,44.41
2023-05-20T10:26:13.469Z,43.20
2023-05-20T10:28:41.783Z,43.10
2023-05-20T10:31:18.235Z,42.75
2023-05-20T10:33:47.348Z,43.57
2023-05-20T10:36:29.301Z,44.04
2023-05-20T10:38:59.630Z,44.90
2023-05-20T10:41:30.976Z,46.09
2023-05-20T10:44:05.187Z,47.04
2023-05-20T10:46:48.296Z,45.78
2023-05-20T10:49:26.907Z,43.12
2023-05-20T10:51:55.942Z,41.34
2023-05-20T10:54:23.962Z,41.70
2023-05-20T10:56:53.587Z,42.40
2023-05-20T10:59:21.956Z,42.35
2023-05-20T11:01:50.493Z,41.30
2023-05-20T11:04:20.002Z,40.61
2023-05-20T11:06:54.422Z,41.35
2023-05-20T11:09:23.222Z,40.80
2023-05-20T11:11:55.351Z,40.91
2023-05-20T11:14:23.569Z,41.52
2023-05-20T11:16:53.534Z,42.74
2023-05-20T11:19:21.582Z,42.35
2023-05-20T11:21:49.421Z,41.77
2023-05-20T11:24:26.563Z,42.23
2023-05-20T11:26:55.927Z,40.38
2023-05-20T11:29:26.138Z,38.26
2023-05-20T11:31:53.865Z,38.73
2023-05-20T11:34:25.022Z,39.20
2023-05-20T11:36:58.796Z,38.58
2023-05-20T11:39:30.251Z,40.46
2023-05-20T11:41:59.119Z,41.14
2023-05-20T11:44:26.842Z,40.56
2023-05-20T11:47:03.351Z,40.94
2023-05-20T11:49:39.237Z,41.36
2023-05-20T11:52:09.452Z,41.53
2023-05-20T11:54:37.252Z,42.21
2023-05-20T11:57:07.093Z,41.73
2023-05-20T11:59:35.088Z,40.06
2023-05-20T12:02:03.098Z,39.51
2023-05-20T12:04:31.595Z,37.54
2023-05-20T12:06:59.394Z,37.29
2023-05-20T12:09:27.503Z,38.02
2023-05-20T12:11:56.723Z,37.80
2023-05-20T12:14:24.567Z,38.19
2023-05-20T12:16:53.709Z,39.70
2023-05-20T12:19:21.684Z,40.68
2023-05-20T12:21:51.818Z,40.13
2023-05-20T12:24:21.613Z,42.01
2023-05-20T12:26:49.422Z,42.86
2023-05-20T12:29:17.307Z,41.78
2023-05-20T12:31:45.247Z,39.90
2023-05-20T12:34:13.026Z,40.53
2023-05-20T12:36:40.740Z,41.09
2023-05-20T12:39:09.438Z,41.19
2023-05-20T12:41:37.055Z,39.77
2023-05-20T12:44:06.163Z,41.07
2023-05-20T12:46:33.882Z,40.98
2023-05-20T12:49:03.197Z,39.74
2023-05-20T12:51:31.050Z,37.87
2023-05-20T12:53:59.117Z,37.16
2023-05-20T12:56:27.505Z,37.93
2023-05-20T12:58:55.404Z,36.27
2023-05-20T13:01:23.098Z,35.07
2023-05-20T13:03:53.498Z,35.13
2023-05-20T13:06:21.318Z,37.26
2023-05-20T13:08:49.125Z,36.50
2023-05-20T13:11:17.137Z,36.97
2023-05-20T13:13:44.998Z,37.45
2023-05-20T13:16:12.841Z,37.60
2023-05-20T13:18:40.562Z,38.52
2023-05-20T13:21:08.473Z,39.90
2023-05-20T13:23:37.098Z,40.78
2023-05-20T13:26:05.032Z,41.51
2023-05-20T13:28:34.010Z,41.43
2023-05-20T13:31:06.715Z,42.84
2023-05-20T13:33:34.735Z,43.25
2023-05-20T13:36:02.769Z,44.33
2023-05-20T13:38:30.428Z,44.73
2023-05-20T13:40:59.498Z,45.55
2023-05-20T13:43:28.543Z,46.48
2023-05-20T13:45:56.353Z,46.11
2023-05-20T13:48:24.076Z,45.24
2023-05-20T13:50:51.740Z,44.82
2023-05-20T13:53:19.410Z,44.17
2023-05-20T13:55:47.084Z,41.47
2023-05-20T13:58:14.897Z,40.16
2023-05-20T14:00:42.561Z,40.18
2023-05-20T14:03:10.549Z,39.93
2023-05-20T14:05:38.234Z,40.43
2023-05-20T14:08:06.047Z,39.15
2023-05-20T14:10:34.185Z,38.49
2023-05-20T14:13:02.241Z,38.67
2023-05-20T14:15:33.174Z,38.67
2023-05-20T14:18:01.000Z,39.17
2023-05-20T14:20:28.762Z,37.99
2023-05-20T14:22:56.598Z,36.66
2023-05-20T14:25:24.402Z,35.32
2023-05-20T14:27:52.110Z,35.55
2023-05-20T14:30:19.856Z,35.35
2023-05-20T14:32:47.651Z,35.94
2023-05-20T14:35:16.521Z,35.73
2023-05-20T14:37:44.855Z,35.43
2023-05-20T14:40:13.112Z,35.59
2023-05-20T14:42:41.002Z,37.58
2023-05-20T14:45:09.777Z,37.53
2023-05-20T14:47:40.045Z,36.93
2023-05-20T14:50:08.500Z,36.23
2023-05-20T14:52:36.202Z,35.31
2023-05-20T14:55:04.528Z,35.06
2023-05-20T14:57:32.290Z,34.87
2023-05-20T15:00:00.019Z,35.00
2023-05-20T15:02:27.923Z,34.22
2023-05-20T15:04:55.982Z,33.98
2023-05-20T15:07:23.716Z,33.34
2023-05-20T15:09:51.341Z,32.62
2023-05-20T15:12:19.051Z,32.87
2023-05-20T15:14:46.777Z,34.80
2023-05-20T15:17:14.652Z,36.94
2023-05-20T15:19:42.604Z,38.66
2023-05-20T15:22:10.545Z,38.64
2023-05-20T15:24:38.243Z,38.45
2023-05-20T15:27:06.298Z,38.80
2023-05-20T15:29:40.937Z,38.43
2023-05-20T15:32:08.937Z,38.76
2023-05-20T15:34:36.720Z,40.57
2023-05-20T15:37:04.604Z,41.58
2023-05-20T15:39:32.234Z,40.40
2023-05-20T15:42:02.149Z,37.85
2023-05-20T15:44:30.126Z,36.46
2023-05-20T15:46:58.143Z,36.92
2023-05-20T15:49:25.889Z,37.21
2023-05-20T15:52:03.171Z,37.83
2023-05-20T15:54:32.969Z,38.20
2023-05-20T15:57:02.731Z,39.79
2023-05-20T15:59:30.491Z,41.71
2023-05-20T16:01:58.286Z,43.02
2023-05-20T16:04:26.143Z,43.68
2023-05-20T16:06:54.193Z,43.73
2023-05-20T16:09:22.487Z,44.47
2023-05-20T16:11:50.495Z,44.62
2023-05-20T16:14:18.549Z,44.98
2023-05-20T16:16:49.548Z,45.26
2023-05-20T16:19:17.205Z,45.05
2023-05-20T16:21:45.999Z,45.16
2023-05-20T16:24:14.095Z,45.33
2023-05-20T16:26:42.175Z,45.47
2023-05-20T16:29:09.867Z,45.07
2023-05-20T16:31:37.549Z,45.13
2023-05-20T16:34:05.483Z,45.21
2023-05-20T16:36:33.304Z,45.68
2023-05-20T16:39:01.038Z,45.69
2023-05-20T16:41:28.751Z,46.45
2023-05-20T16:43:56.885Z,46.51
2023-05-20T16:46:24.763Z,46.96
2023-05-20T16:48:52.594Z,46.98
2023-05-20T16:51:20.695Z,47.12
2023-05-20T16:53:48.413Z,47.24
2023-05-20T16:56:16.325Z,47.44
2023-05-20T16:58:44.009Z,47.49
2023-05-20T17:01:11.778Z,47.34
2023-05-20T17:03:39.561Z,47.43
2023-05-20T17:06:07.553Z,48.17
2023-05-20T17:08:36.744Z,48.31
2023-05-20T17:11:04.675Z,48.39
2023-05-20T17:13:32.365Z,48.59
2023-05-20T17:16:00.157Z,48.77
2023-05-20T17:18:27.963Z,48.88
2023-05-20T17:20:55.820Z,48.59
2023-05-20T17:23:24.099Z,48.34
2023-05-20T17:25:51.709Z,48.84
2023-05-20T17:28:19.534Z,49.49
2023-05-20T17:30:47.434Z,49.39
2023-05-20T17:33:15.334Z,49.12
2023-05-20T17:35:43.086Z,49.08
2023-05-20T17:38:10.952Z,48.92
2023-05-20T17:40:38.675Z,48.57
2023-05-20T17:43:06.406Z,48.28
2023-05-20T17:45:34.417Z,48.42
2023-05-20T17:48:08.704Z,48.73
2023-05-20T17:50:38.522Z,48.65
2023-05-20T17:53:06.740Z,48.92
2023-05-20T17:55:36.459Z,48.44
2023-05-20T17:58:05.008Z,49.04
2023-05-20T18:00:34.513Z,48.90
2023-05-20T18:03:02.779Z,49.19
2023-05-20T18:05:30.765Z,49.43
2023-05-20T18:07:58.518Z,49.27
2023-05-20T18:10:26.344Z,49.65
2023-05-20T18:12:53.989Z,49.81
2023-05-20T18:15:21.914Z,50.00
2023-05-20T18:17:49.705Z,50.32
2023-05-20T18:20:17.417Z,50.74
2023-05-20T18:22:45.787Z,51.25
2023-05-20T18:25:15.062Z,51.72
2023-05-20T18:27:43.075Z,52.41
2023-05-20T18:30:11.064Z,53.04
2023-05-20T18:32:41.452Z,53.84
2023-05-20T18:35:09.501Z,54.08
2023-05-20T18:37:37.394Z,54.11
2023-05-20T18:40:06.515Z,54.35
2023-05-20T18:42:34.219Z,54.75
2023-05-20T18:45:02.219Z,55.76
2023-05-20T18:47:30.059Z,56.51
2023-05-20T18:49:57.773Z,56.79
2023-05-20T18:52:25.421Z,57.33
2023-05-20T18:54:53.659Z,57.79
2023-05-20T18:57:22.802Z,57.68
2023-05-20T18:59:50.659Z,57.93
2023-05-20T19:02:18.687Z,58.20
2023-05-20T19:04:46.457Z,58.42
2023-05-20T19:07:14.233Z,58.76
2023-05-20T19:09:41.842Z,59.12
2023-05-20T19:12:09.516Z,59.57
2023-05-20T19:14:37.151Z,59.49
2023-05-20T19:17:05.527Z,59.71
2023-05-20T19:19:33.444Z,59.99
2023-05-20T19:22:01.433Z,60.28
2023-05-20T19:24:31.768Z,60.58
2023-05-20T19:26:59.505Z,60.46
2023-05-20T19:29:27.231Z,61.32
2023-05-20T19:31:56.064Z,61.73
2023-05-20T19:34:24.856Z,62.11
2023-05-20T19:36:52.666Z,62.62
2023-05-20T19:39:20.544Z,62.93
2023-05-20T19:41:48.780Z,63.55
2023-05-20T19:44:16.866Z,64.18
2023-05-20T19:46:44.587Z,64.60
2023-05-20T19:49:12.525Z,64.77
2023-05-20T19:51:40.167Z,64.74
2023-05-20T19:54:08.041Z,64.91
2023-05-20T19:56:36.111Z,65.45
2023-05-20T19:59:04.057Z,65.56
2023-05-20T20:01:32.172Z,65.67
2023-05-20T20:04:11.296Z,66.18
2023-05-20T20:09:45.664Z,66.60
2023-05-20T20:13:27.587Z,66.55
2023-05-20T20:16:15.812Z,66.65
2023-05-20T20:18:43.972Z,67.09
2023-05-20T20:21:14.937Z,67.49
2023-05-20T20:23:43.562Z,67.35
2023-05-20T20:26:13.863Z,67.47
2023-05-20T20:28:41.804Z,67.78
2023-05-20T20:31:09.621Z,68.17
2023-05-20T20:33:37.302Z,68.42
2023-05-20T20:36:05.598Z,68.48
2023-05-20T20:38:33.940Z,68.62
2023-05-20T20:41:03.825Z,68.90
2023-05-20T20:43:35.244Z,69.17
2023-05-20T20:46:06.362Z,69.16
2023-05-20T20:48:34.620Z,69.15
2023-05-20T20:51:07.837Z,69.22
2023-05-20T20:53:37.933Z,68.96
2023-05-20T20:56:06.713Z,69.21
2023-05-20T21:04:47.704Z,68.64
2023-05-20T21:07:18.611Z,68.43
2023-05-20T21:09:47.224Z,68.07
2023-05-20T21:12:16.420Z,67.75
2023-05-20T21:14:44.489Z,67.89
2023-05-20T21:17:13.008Z,67.94
2023-05-20T21:19:41.908Z,67.73
2023-05-20T21:22:10.518Z,67.49
2023-05-20T21:24:39.055Z,67.30
2023-05-20T21:27:06.844Z,67.29
2023-05-20T21:29:35.586Z,67.14
2023-05-20T21:32:03.586Z,67.12
2023-05-20T21:34:41.514Z,66.96
2023-05-20T21:37:10.570Z,66.91
2023-05-20T21:39:38.943Z,66.92
2023-05-20T21:42:06.813Z,67.10
2023-05-20T21:44:34.622Z,67.24
2023-05-20T21:47:02.657Z,67.27
2023-05-20T21:49:30.559Z,67.20
2023-05-20T21:51:59.277Z,67.36
2023-05-20T21:54:27.985Z,67.41
2023-05-20T21:56:56.471Z,67.84
2023-05-20T21:59:24.339Z,67.63
2023-05-20T22:01:52.262Z,67.67
2023-05-20T22:04:20.626Z,67.83
2023-05-20T22:06:50.733Z,67.78
2023-05-20T22:09:18.733Z,67.67
2023-05-20T22:11:48.389Z,67.73
2023-05-20T22:14:16.797Z,67.61
2023-05-20T22:16:48.724Z,67.45
2023-05-20T22:19:17.399Z,67.58
2023-05-20T22:21:50.515Z,67.86
2023-05-20T22:24:18.894Z,68.00
2023-05-20T22:26:46.904Z,67.85
2023-05-20T22:29:14.715Z,68.04
2023-05-20T22:31:42.661Z,68.16
2023-05-20T22:34:10.727Z,68.01
2023-05-20T22:36:39.350Z,68.25
2023-05-20T22:39:07.144Z,68.55
2023-05-20T22:41:35.036Z,68.70
2023-05-20T22:44:02.759Z,68.28
2023-05-20T22:46:30.620Z,68.08
2023-05-20T22:49:01.701Z,68.41
2023-05-20T22:51:31.222Z,68.01
2023-05-20T22:53:59.115Z,68.14
2023-05-20T22:56:26.953Z,68.25
2023-05-20T22:58:54.714Z,68.64
2023-05-20T23:01:22.519Z,69.00
2023-05-20T23:03:52.570Z,69.28
2023-05-20T23:06:22.511Z,69.40
2023-05-20T23:08:50.408Z,69.18
2023-05-20T23:11:18.484Z,69.07
2023-05-20T23:13:46.606Z,69.25
2023-05-20T23:16:16.272Z,69.08
2023-05-20T23:18:44.196Z,69.28
2023-05-20T23:23:55.085Z,70.22
2023-05-20T23:26:23.876Z,70.48
2023-05-20T23:28:51.743Z,70.82
2023-05-20T23:31:19.554Z,70.92
2023-05-20T23:33:47.455Z,71.28
2023-05-20T23:36:15.600Z,71.80
2023-05-20T23:38:43.438Z,71.89
2023-05-20T23:41:11.382Z,72.13
2023-05-20T23:43:39.867Z,72.29
2023-05-20T23:46:08.260Z,72.42
2023-05-20T23:48:36.576Z,72.59
2023-05-20T23:51:04.538Z,72.71
2023-05-20T23:53:32.478Z,72.85
2023-05-20T23:56:00.381Z,72.99
2023-05-20T23:58:28.231Z,73.11
